Time;durP1;ratioP1;P1;durP2;ratioP2;P2;SDS_P1;SDS_P2;PMS_P1;PMS_P2;Temp;Humidity;BMP_temperature;BMP_pressure;BME280_temperature;BME280_humidity;BME280_pressure;Samples;Min_cycle;Max_cycle;Signal;HPM_P1;HPM_P2
2022/08/10 00:01:11;;;;;;;0.65;0.32;;;24.80;53.90;;;;;;6322614;27;20046;-40
2022/08/10 00:04:13;;;;;;;0.30;0.22;;;24.80;53.90;;;;;;6323899;27;20039;-39
2022/08/10 00:07:22;;;;;;;0.80;0.30;;;24.90;54.00;;;;;;6311665;27;20043;-41
2022/08/10 00:10:25;;;;;;;0.45;0.30;;;24.80;54.10;;;;;;6331629;27;20153;-40
2022/08/10 00:13:27;;;;;;;0.40;0.30;;;24.90;54.20;;;;;;6311071;27;20973;-40
2022/08/10 00:16:28;;;;;;;0.30;0.30;;;24.80;54.20;;;;;;6328452;27;20063;-41
2022/08/10 00:19:30;;;;;;;0.28;0.28;;;24.90;54.30;;;;;;6326884;27;21012;-39
2022/08/10 00:22:51;;;;;;;;;;;24.90;54.30;;;;;;6295613;27;20035;-40
2022/08/10 00:26:01;;;;;;;0.43;0.20;;;24.80;54.20;;;;;;6325235;27;20015;-43
2022/08/10 00:29:02;;;;;;;0.40;0.40;;;24.80;54.20;;;;;;6313701;27;20996;-40
2022/08/10 00:32:10;;;;;;;0.40;0.28;;;24.90;54.40;;;;;;6333554;27;20826;-42
2022/08/10 00:35:11;;;;;;;0.80;0.40;;;24.90;54.50;;;;;;6336594;27;20075;-40
2022/08/10 00:38:13;;;;;;;0.50;0.40;;;24.90;54.50;;;;;;6336105;27;20047;-40
2022/08/10 00:41:15;;;;;;;0.32;0.30;;;24.80;54.50;;;;;;6334692;27;20158;-39
2022/08/10 00:44:17;;;;;;;0.50;0.30;;;24.80;54.50;;;;;;6337114;27;20045;-42
2022/08/10 00:47:19;;;;;;;0.30;0.30;;;24.80;54.50;;;;;;6321257;27;20396;-42
2022/08/10 00:50:39;;;;;;;0.20;0.20;;;24.80;54.60;;;;;;6307126;27;20130;-39
2022/08/10 00:53:40;;;;;;;0.30;0.30;;;24.90;54.60;;;;;;6291418;27;20181;-39
2022/08/10 00:56:43;;;;;;;0.40;0.30;;;24.80;54.60;;;;;;6322638;27;20085;-39
2022/08/10 01:00:08;;;;;;;0.93;0.40;;;24.80;54.60;;;;;;6307318;27;20153;-40
2022/08/10 01:03:09;;;;;;;0.30;0.20;;;24.90;54.80;;;;;;6321979;27;20232;-40
2022/08/10 01:06:16;;;;;;;0.45;0.30;;;24.90;54.80;;;;;;6325870;27;20290;-42
2022/08/10 01:09:25;;;;;;;0.52;0.40;;;24.70;54.60;;;;;;6324361;27;20043;-42
2022/08/10 01:12:33;;;;;;;0.70;0.28;;;24.80;54.70;;;;;;6328196;27;20366;-40
2022/08/10 01:15:52;;;;;;;0.68;0.43;;;24.80;54.70;;;;;;6311560;27;20429;-39
2022/08/10 01:19:02;;;;;;;0.57;0.30;;;24.70;54.70;;;;;;6307696;27;20855;-39
2022/08/10 01:22:31;;;;;;;0.50;0.30;;;24.70;54.70;;;;;;6324930;27;20343;-39
2022/08/10 01:25:48;;;;;;;0.40;0.32;;;24.80;54.80;;;;;;6323485;27;20151;-39
2022/08/10 01:29:32;;;;;;;0.30;0.22;;;24.80;54.80;;;;;;6298640;27;20340;-40
2022/08/10 01:32:53;;;;;;;0.38;0.28;;;24.80;54.80;;;;;;6311650;27;20356;-41
2022/08/10 01:35:58;;;;;;;0.80;0.43;;;24.80;54.80;;;;;;6327148;27;20130;-41
2022/08/10 01:39:02;;;;;;;0.77;0.30;;;24.70;54.70;;;;;;6318873;27;20665;-40
2022/08/10 01:42:06;;;;;;;0.60;0.30;;;24.70;54.70;;;;;;6319048;27;20043;-39
2022/08/10 01:45:14;;;;;;;0.35;0.20;;;24.90;54.80;;;;;;6303814;27;20039;-41
2022/08/10 01:48:27;;;;;;;0.20;0.20;;;24.80;54.80;;;;;;6299009;27;20918;-39
2022/08/10 01:51:33;;;;;;;0.52;0.20;;;24.80;54.80;;;;;;6298052;27;20441;-40
2022/08/10 01:54:35;;;;;;;1.45;0.40;;;24.90;54.90;;;;;;6317406;27;20043;-39
2022/08/10 01:57:38;;;;;;;0.40;0.38;;;24.80;54.80;;;;;;6321809;27;20617;-40
2022/08/10 02:00:44;;;;;;;0.28;0.17;;;24.80;54.80;;;;;;6323501;27;20946;-41
2022/08/10 02:03:49;;;;;;;0.28;0.28;;;24.70;54.80;;;;;;6301292;27;20361;-40
2022/08/10 02:07:08;;;;;;;0.50;0.40;;;24.80;54.80;;;;;;6302596;27;20719;-41
2022/08/10 02:10:12;;;;;;;0.90;0.40;;;24.80;54.80;;;;;;6315726;27;20159;-40
2022/08/10 02:13:16;;;;;;;0.20;0.20;;;24.60;54.70;;;;;;6286483;27;20926;-40
2022/08/10 02:16:22;;;;;;;0.22;0.20;;;24.70;54.70;;;;;;6283616;27;20342;-41
2022/08/10 02:19:27;;;;;;;0.60;0.38;;;24.90;54.80;;;;;;6321047;27;20300;-41
2022/08/10 02:22:30;;;;;;;0.30;0.30;;;24.80;54.90;;;;;;6319823;27;20755;-39
2022/08/10 02:25:41;;;;;;;0.20;0.20;;;24.70;54.80;;;;;;6316775;27;20216;-39
2022/08/10 02:28:45;;;;;;;0.65;0.30;;;24.70;54.70;;;;;;6314891;27;20049;-41
2022/08/10 02:31:48;;;;;;;0.40;0.30;;;24.80;54.70;;;;;;6317979;27;20417;-40
2022/08/10 02:34:54;;;;;;;0.60;0.30;;;24.90;55.40;;;;;;6314920;27;20626;-42
2022/08/10 02:38:04;;;;;;;0.28;0.22;;;24.60;54.60;;;;;;6295305;27;20057;-39
2022/08/10 02:41:11;;;;;;;0.30;0.30;;;24.70;54.60;;;;;;6323235;27;20111;-40
2022/08/10 02:44:39;;;;;;;0.40;0.40;;;24.80;54.70;;;;;;6302427;27;21075;-41
2022/08/10 02:48:06;;;;;;;0.50;0.30;;;24.70;54.50;;;;;;6311081;27;20027;-39
2022/08/10 02:51:16;;;;;;;0.82;0.40;;;24.70;54.60;;;;;;6332197;27;20043;-39
2022/08/10 02:54:21;;;;;;;0.20;0.20;;;24.80;54.60;;;;;;6311603;27;20115;-41
2022/08/10 02:57:27;;;;;;;0.30;0.30;;;24.70;54.50;;;;;;6331274;27;20145;-39
2022/08/10 03:00:30;;;;;;;1.00;0.40;;;24.70;54.50;;;;;;6332375;27;20803;-40
2022/08/10 03:03:46;;;;;;;0.63;0.30;;;24.80;54.50;;;;;;6328484;27;20027;-40
2022/08/10 03:06:57;;;;;;;0.50;0.30;;;24.70;54.40;;;;;;6329226;27;20055;-41
2022/08/10 03:10:00;;;;;;;;;;;24.70;54.40;;;;;;6331346;27;20051;-39
2022/08/10 03:13:05;;;;;;;0.68;0.38;;;24.70;54.50;;;;;;6327466;27;19918;-40
2022/08/10 03:16:08;;;;;;;0.50;0.40;;;24.80;54.40;;;;;;6328528;27;20149;-40
2022/08/10 03:19:11;;;;;;;0.50;0.40;;;24.70;54.40;;;;;;6296115;27;20046;-43
2022/08/10 03:22:34;;;;;;;0.40;0.30;;;24.70;54.40;;;;;;6319016;27;20865;-40
2022/08/10 03:25:37;;;;;;;0.30;0.30;;;24.70;54.40;;;;;;6328340;27;20100;-39
2022/08/10 03:28:39;;;;;;;1.30;0.22;;;24.80;54.40;;;;;;6327164;27;20051;-41
2022/08/10 03:31:41;;;;;;;0.45;0.38;;;24.60;54.30;;;;;;6296926;27;20157;-39
2022/08/10 03:34:43;;;;;;;0.63;0.30;;;24.70;54.40;;;;;;6330258;27;20070;-42
2022/08/10 03:37:46;;;;;;;0.30;0.30;;;24.70;54.30;;;;;;6331005;27;20154;-40
2022/08/10 03:40:49;;;;;;;0.40;0.30;;;24.70;54.30;;;;;;6328873;27;20054;-40
2022/08/10 03:43:53;;;;;;;0.38;0.30;;;24.70;54.40;;;;;;6329653;27;20850;-41
2022/08/10 03:46:56;;;;;;;0.40;0.40;;;24.70;54.30;;;;;;6328516;27;20821;-39
2022/08/10 03:50:00;;;;;;;0.65;0.45;;;24.70;54.40;;;;;;6315377;27;20046;-39
2022/08/10 03:53:23;;;;;;;0.50;0.25;;;24.70;54.30;;;;;;6312191;27;20882;-40
2022/08/10 03:56:44;;;;;;;0.40;0.40;;;24.60;54.30;;;;;;6311752;27;20035;-39
2022/08/10 03:59:46;;;;;;;0.35;0.35;;;24.60;54.20;;;;;;6314461;27;20874;-40
2022/08/10 04:02:50;;;;;;;0.55;0.38;;;24.60;54.20;;;;;;6326845;27;20042;-40
2022/08/10 04:05:55;;;;;;;0.50;0.30;;;24.60;54.30;;;;;;6327341;27;20070;-42
2022/08/10 04:08:58;;;;;;;0.85;0.50;;;24.70;54.30;;;;;;6325746;27;20149;-40
2022/08/10 04:11:59;;;;;;;0.40;0.40;;;24.70;54.20;;;;;;6326961;27;20070;-41
2022/08/10 04:15:01;;;;;;;0.47;0.40;;;24.70;54.30;;;;;;6330639;27;21056;-39
2022/08/10 04:18:02;;;;;;;0.57;0.30;;;24.70;54.20;;;;;;6325933;27;20996;-39
2022/08/10 04:21:11;;;;;;;0.40;0.20;;;24.70;54.20;;;;;;6329244;27;20896;-42
2022/08/10 04:24:19;;;;;;;0.60;0.50;;;24.60;54.10;;;;;;6323069;27;20157;-39
2022/08/10 04:27:33;;;;;;;0.38;0.30;;;24.70;54.20;;;;;;6326536;27;20069;-39
2022/08/10 04:30:35;;;;;;;0.70;0.30;;;24.60;54.10;;;;;;6326460;27;20082;-40
2022/08/10 04:33:41;;;;;;;0.43;0.40;;;24.70;54.20;;;;;;6289821;27;20047;-40
2022/08/10 04:36:43;;;;;;;0.35;0.35;;;24.70;54.10;;;;;;6323874;27;20042;-40
2022/08/10 04:39:49;;;;;;;0.85;0.30;;;24.70;54.10;;;;;;6321671;27;20093;-44
2022/08/10 04:42:51;;;;;;;0.57;0.38;;;24.80;54.20;;;;;;6324235;27;20039;-41
2022/08/10 04:45:52;;;;;;;0.47;0.28;;;24.70;54.10;;;;;;6294986;27;20094;-41
2022/08/10 04:48:56;;;;;;;0.73;0.40;;;24.70;54.10;;;;;;6312829;27;20042;-40
2022/08/10 04:52:03;;;;;;;0.35;0.30;;;24.60;54.10;;;;;;6317878;27;20095;-44
2022/08/10 04:55:06;;;;;;;1.05;0.40;;;24.60;54.10;;;;;;6316785;27;20053;-40
2022/08/10 04:58:08;;;;;;;0.52;0.32;;;24.70;54.10;;;;;;6315749;27;20047;-42
2022/08/10 05:01:09;;;;;;;0.30;0.30;;;24.70;54.10;;;;;;6313298;27;20091;-41
2022/08/10 05:04:11;;;;;;;0.22;0.22;;;24.60;54.70;;;;;;6323007;27;20051;-41
2022/08/10 05:07:32;;;;;;;0.50;0.30;;;24.70;54.10;;;;;;6307373;27;20833;-40
2022/08/10 05:10:45;;;;;;;0.20;0.20;;;24.70;54.10;;;;;;6322166;27;20039;-42
2022/08/10 05:13:46;;;;;;;0.30;0.30;;;24.70;54.10;;;;;;6321930;27;21221;-39
2022/08/10 05:16:49;;;;;;;0.70;0.50;;;24.70;54.10;;;;;;6322820;27;20143;-40
2022/08/10 05:19:50;;;;;;;0.50;0.40;;;24.70;54.00;;;;;;6323474;27;20087;-42
2022/08/10 05:23:07;;;;;;;0.70;0.32;;;24.60;54.00;;;;;;6326610;27;20034;-39
2022/08/10 05:26:09;;;;;;;0.65;0.40;;;24.60;54.00;;;;;;6323631;27;20068;-40
2022/08/10 05:29:10;;;;;;;1.45;0.50;;;24.60;54.00;;;;;;6327128;27;20131;-41
2022/08/10 05:32:12;;;;;;;0.68;0.45;;;24.60;54.00;;;;;;6324656;27;20043;-39
2022/08/10 05:35:14;;;;;;;0.75;0.45;;;24.70;54.20;;;;;;6324930;27;20038;-40
2022/08/10 05:38:16;;;;;;;0.63;0.40;;;24.60;54.00;;;;;;6308735;27;20903;-41
2022/08/10 05:41:23;;;;;;;0.82;0.50;;;24.70;54.60;;;;;;6320057;27;21009;-40
2022/08/10 05:44:24;;;;;;;1.20;0.47;;;24.70;54.00;;;;;;6302073;27;20134;-40
2022/08/10 05:47:27;;;;;;;0.40;0.38;;;24.60;54.00;;;;;;6321656;27;21119;-40
2022/08/10 05:50:30;;;;;;;0.50;0.50;;;24.60;54.00;;;;;;6317774;27;20047;-40
2022/08/10 05:53:37;;;;;;;0.57;0.47;;;24.60;54.00;;;;;;6315217;27;20042;-40
2022/08/10 05:57:00;;;;;;;0.63;0.50;;;24.60;54.00;;;;;;6298686;27;20051;-40
2022/08/10 06:00:05;;;;;;;0.82;0.60;;;24.70;54.00;;;;;;6316261;27;20043;-41
2022/08/10 06:03:33;;;;;;;0.82;0.50;;;24.70;54.10;;;;;;6308162;27;20034;-42
2022/08/10 06:06:35;;;;;;;0.90;0.68;;;24.60;54.00;;;;;;6292368;27;20035;-39
2022/08/10 06:09:42;;;;;;;0.80;0.52;;;24.60;54.00;;;;;;6286994;27;20134;-40
2022/08/10 06:16:32;;;;;;;0.60;0.45;;;24.70;54.10;;;;;;6294600;27;20146;-41
2022/08/10 06:19:36;;;;;;;0.82;0.50;;;24.60;54.00;;;;;;6308296;27;21111;-40
2022/08/10 06:22:38;;;;;;;0.40;0.40;;;24.70;54.00;;;;;;6306558;27;20074;-40
2022/08/10 06:25:42;;;;;;;0.63;0.50;;;24.70;54.00;;;;;;6305070;27;20038;-39
2022/08/10 06:29:10;;;;;;;1.20;0.68;;;24.60;54.00;;;;;;6277895;27;21010;-40
2022/08/10 06:32:13;;;;;;;0.82;0.57;;;24.80;54.00;;;;;;6295199;27;20111;-42
2022/08/10 06:35:16;;;;;;;1.85;0.60;;;24.80;54.10;;;;;;6304314;27;20211;-42
2022/08/10 06:38:19;;;;;;;0.60;0.50;;;24.70;54.00;;;;;;6286504;27;20039;-42
2022/08/10 06:41:24;;;;;;;0.47;0.40;;;24.70;54.00;;;;;;6302527;27;20283;-41
2022/08/10 06:44:54;;;;;;;0.50;0.50;;;24.80;54.10;;;;;;6273476;27;20154;-42
2022/08/10 06:48:03;;;;;;;2.38;0.50;;;24.70;54.00;;;;;;6259590;27;21016;-42
2022/08/10 06:51:07;;;;;;;1.15;0.50;;;24.80;54.10;;;;;;6252487;27;20082;-40
2022/08/10 06:54:11;;;;;;;1.27;0.60;;;24.80;54.10;;;;;;6255778;27;20043;-40
2022/08/10 06:57:15;;;;;;;0.73;0.60;;;24.90;54.10;;;;;;6276390;27;20043;-40
2022/08/10 07:00:21;;;;;;;0.85;0.70;;;24.80;54.10;;;;;;6262495;27;20042;-43
2022/08/10 07:03:29;;;;;;;1.40;0.50;;;24.90;54.10;;;;;;6255565;27;20062;-40
2022/08/10 07:06:33;;;;;;;1.15;0.82;;;24.90;54.20;;;;;;6249224;27;20055;-41
2022/08/10 07:09:37;;;;;;;1.30;0.50;;;24.80;54.10;;;;;;6258690;27;21184;-40
2022/08/10 07:12:40;;;;;;;1.13;0.50;;;24.90;54.20;;;;;;6241126;27;20035;-39
2022/08/10 07:15:43;;;;;;;0.77;0.57;;;24.80;54.10;;;;;;6230940;27;20054;-41
2022/08/10 07:19:03;;;;;;;0.77;0.63;;;24.90;54.20;;;;;;6236807;27;20047;-40
2022/08/10 07:22:06;;;;;;;1.35;0.82;;;25.00;54.30;;;;;;6256983;27;21773;-40
2022/08/10 07:25:11;;;;;;;1.85;0.63;;;25.00;54.30;;;;;;6248593;27;20046;-40
2022/08/10 07:28:13;;;;;;;0.80;0.70;;;25.00;54.30;;;;;;6231176;27;20047;-39
2022/08/10 07:31:19;;;;;;;1.85;0.70;;;25.10;54.30;;;;;;6254160;27;20153;-39
2022/08/10 07:34:43;;;;;;;1.90;0.68;;;24.90;54.30;;;;;;6203055;27;20170;-42
2022/08/10 07:37:48;;;;;;;2.63;0.52;;;25.00;54.40;;;;;;6217151;27;20173;-43
2022/08/10 07:40:52;;;;;;;1.90;0.70;;;25.10;54.50;;;;;;6209197;27;20107;-43
2022/08/10 07:43:55;;;;;;;0.73;0.50;;;25.10;54.60;;;;;;6188631;27;30132;-41
2022/08/10 07:47:02;;;;;;;1.23;0.50;;;25.10;54.70;;;;;;6215619;27;21057;-42
2022/08/10 07:50:09;;;;;;;2.20;0.77;;;25.20;54.80;;;;;;6220313;27;20186;-45
2022/08/10 07:53:19;;;;;;;0.85;0.50;;;25.10;54.60;;;;;;6234489;27;20059;-44
2022/08/10 07:56:24;;;;;;;1.45;0.60;;;25.20;54.60;;;;;;6252724;27;20248;-38
2022/08/10 07:59:54;;;;;;;1.73;0.60;;;25.30;54.50;;;;;;6223955;27;25733;-38
2022/08/10 08:03:00;;;;;;;0.75;0.40;;;25.30;54.30;;;;;;6210997;27;20055;-38
2022/08/10 08:06:03;;;;;;;0.77;0.55;;;25.30;54.20;;;;;;6240009;27;23566;-41
2022/08/10 08:09:13;;;;;;;0.82;0.40;;;25.40;54.20;;;;;;6255044;27;20050;-41
2022/08/10 08:12:16;;;;;;;1.38;0.52;;;25.30;54.00;;;;;;6225103;27;20211;-43
2022/08/10 08:15:20;;;;;;;0.77;0.57;;;25.40;53.90;;;;;;6239595;27;20108;-43
2022/08/10 08:18:43;;;;;;;0.80;0.45;;;25.50;53.90;;;;;;6206034;27;20073;-40
2022/08/10 08:22:01;;;;;;;0.70;0.47;;;25.40;53.70;;;;;;6241374;27;20074;-39
2022/08/10 08:25:23;;;;;;;1.55;0.50;;;25.50;53.70;;;;;;6220336;27;21223;-42
2022/08/10 08:28:27;;;;;;;0.50;0.43;;;25.70;53.80;;;;;;6232708;27;20202;-42
2022/08/10 08:31:29;;;;;;;0.45;0.45;;;25.50;53.70;;;;;;6201999;27;20046;-42
2022/08/10 08:34:33;;;;;;;0.95;0.40;;;25.60;53.60;;;;;;6221254;27;21476;-44
2022/08/10 08:37:37;;;;;;;5.30;0.65;;;25.50;53.50;;;;;;6251739;27;20167;-44
2022/08/10 08:41:06;;;;;;;0.75;0.47;;;25.60;53.60;;;;;;6208354;27;23658;-45
2022/08/10 08:44:13;;;;;;;0.80;0.80;;;25.60;53.30;;;;;;6233471;27;22526;-46
2022/08/10 08:47:31;;;;;;;3.33;0.90;;;25.70;53.20;;;;;;6232457;27;20295;-42
2022/08/10 08:51:09;;;;;;;0.60;0.50;;;25.70;53.20;;;;;;6197947;27;21116;-42
2022/08/10 08:54:29;;;;;;;1.98;0.40;;;25.70;53.00;;;;;;6218972;27;26534;-44
2022/08/10 08:57:42;;;;;;;0.65;0.40;;;25.80;53.00;;;;;;6243025;27;26115;-47
2022/08/10 09:01:02;;;;;;;1.55;0.63;;;25.80;52.80;;;;;;6247758;27;20128;-44
2022/08/10 09:04:26;;;;;;;0.60;0.55;;;25.80;52.70;;;;;;6245064;27;20181;-46
2022/08/10 09:07:57;;;;;;;0.80;0.60;;;25.80;52.60;;;;;;6240587;27;20077;-42
2022/08/10 09:11:15;;;;;;;0.50;0.50;;;25.80;52.40;;;;;;6221132;27;20067;-43
2022/08/10 09:14:23;;;;;;;0.90;0.68;;;25.80;52.30;;;;;;6204243;27;20039;-46
2022/08/10 09:17:34;;;;;;;0.45;0.40;;;25.90;52.30;;;;;;6226462;27;20058;-41
2022/08/10 09:20:41;;;;;;;0.52;0.45;;;25.90;52.80;;;;;;6242607;27;20051;-41
2022/08/10 09:23:56;;;;;;;1.63;0.60;;;25.90;52.00;;;;;;6256259;27;20165;-41
2022/08/10 09:27:11;;;;;;;0.60;0.50;;;25.90;52.00;;;;;;6251817;27;20093;-42
2022/08/10 09:30:15;;;;;;;0.50;0.50;;;25.90;51.90;;;;;;6245349;27;21805;-40
2022/08/10 09:33:25;;;;;;;0.40;0.30;;;26.00;51.80;;;;;;6237021;27;20056;-41
2022/08/10 09:36:55;;;;;;;0.57;0.38;;;26.00;51.70;;;;;;6231639;27;24853;-44
2022/08/10 09:40:05;;;;;;;0.40;0.37;;;25.90;51.50;;;;;;6241158;27;20050;-48
2022/08/10 09:43:38;;;;;;;0.40;0.40;;;26.00;51.50;;;;;;6207234;27;20043;-43
2022/08/10 09:46:51;;;;;;;0.73;0.40;;;26.00;51.50;;;;;;6232598;27;20047;-41
2022/08/10 09:50:03;;;;;;;0.40;0.40;;;26.00;51.40;;;;;;6247454;27;20050;-44
2022/08/10 09:53:19;;;;;;;0.73;0.40;;;26.00;51.40;;;;;;6231443;27;20058;-41
2022/08/10 09:56:31;;;;;;;1.52;0.50;;;26.00;51.30;;;;;;6224810;27;20043;-40
2022/08/10 09:59:43;;;;;;;0.73;0.40;;;26.00;51.30;;;;;;6243670;27;20078;-43
2022/08/10 10:03:18;;;;;;;0.57;0.43;;;25.90;51.10;;;;;;6186633;27;29810;-43
2022/08/10 10:06:37;;;;;;;0.80;0.40;;;26.00;51.10;;;;;;6242458;27;20143;-43
2022/08/10 10:09:51;;;;;;;0.70;0.57;;;26.00;51.10;;;;;;6254056;27;20983;-41
2022/08/10 10:12:57;;;;;;;0.40;0.40;;;25.90;50.90;;;;;;6240091;27;20194;-40
2022/08/10 10:16:17;;;;;;;0.35;0.35;;;25.80;50.80;;;;;;6244425;27;21016;-43
2022/08/10 10:19:33;;;;;;;0.68;0.50;;;25.80;50.70;;;;;;6231299;27;20075;-44
2022/08/10 10:22:53;;;;;;;0.40;0.40;;;25.90;50.60;;;;;;6217730;27;20174;-44
2022/08/10 10:26:03;;;;;;;0.38;0.38;;;25.90;50.50;;;;;;6241801;27;20050;-41
2022/08/10 10:29:28;;;;;;;0.47;0.40;;;25.80;50.30;;;;;;6242470;27;20138;-42
2022/08/10 10:33:14;;;;;;;0.30;0.30;;;25.80;50.10;;;;;;6197296;27;20046;-45
2022/08/10 10:36:17;;;;;;;0.43;0.40;;;25.80;50.00;;;;;;6264440;27;20153;-40
2022/08/10 10:39:23;;;;;;;0.28;0.20;;;25.70;49.90;;;;;;6269682;27;20055;-40
2022/08/10 10:42:34;;;;;;;0.50;0.40;;;25.80;49.90;;;;;;6259791;27;20075;-42
2022/08/10 10:46:03;;;;;;;0.50;0.40;;;25.90;49.70;;;;;;6268523;27;20341;-43
2022/08/10 10:49:18;;;;;;;0.65;0.40;;;25.80;50.20;;;;;;6261895;27;20094;-40
2022/08/10 10:52:31;;;;;;;0.60;0.30;;;25.90;49.50;;;;;;6275229;27;20616;-42
2022/08/10 10:55:39;;;;;;;0.45;0.32;;;25.80;48.90;;;;;;6248633;27;21008;-40
2022/08/10 10:59:14;;;;;;;0.20;0.20;;;25.80;49.20;;;;;;6258802;27;20035;-40
2022/08/10 11:02:47;;;;;;;0.63;0.63;;;25.70;49.00;;;;;;6222867;27;20030;-42
2022/08/10 11:06:00;;;;;;;0.30;0.30;;;25.90;48.90;;;;;;6265623;27;20072;-41
2022/08/10 11:09:07;;;;;;;0.60;0.50;;;25.80;48.80;;;;;;6262958;27;20041;-42
2022/08/10 11:12:21;;;;;;;0.50;0.40;;;25.70;48.60;;;;;;6247079;27;20043;-43
2022/08/10 11:15:34;;;;;;;0.30;0.30;;;25.70;48.30;;;;;;6281548;27;20151;-40
2022/08/10 11:18:55;;;;;;;1.05;0.40;;;25.60;48.10;;;;;;6291153;27;20042;-44
2022/08/10 11:22:08;;;;;;;0.63;0.40;;;25.90;48.10;;;;;;6292017;27;20150;-42
2022/08/10 11:25:22;;;;;;;1.45;0.40;;;25.80;48.00;;;;;;6255274;27;20043;-41
2022/08/10 11:28:30;;;;;;;0.40;0.40;;;25.60;47.70;;;;;;6275547;27;20150;-39
2022/08/10 11:31:45;;;;;;;6.18;0.75;;;25.80;47.70;;;;;;6283006;27;20946;-42
2022/08/10 11:34:55;;;;;;;0.40;0.20;;;25.70;47.60;;;;;;6245237;27;21291;-40
2022/08/10 11:38:22;;;;;;;0.40;0.30;;;25.70;47.60;;;;;;6222010;27;20090;-41
2022/08/10 11:41:50;;;;;;;1.20;0.38;;;25.50;47.20;;;;;;6264199;27;20046;-40
2022/08/10 11:45:16;;;;;;;0.43;0.30;;;25.80;47.00;;;;;;6218136;27;20046;-40
2022/08/10 11:48:26;;;;;;;0.43;0.40;;;25.90;46.80;;;;;;6256801;27;21004;-39
2022/08/10 11:51:54;;;;;;;0.43;0.32;;;25.80;46.30;;;;;;6243236;27;20131;-41
2022/08/10 11:55:01;;;;;;;0.57;0.30;;;25.80;46.00;;;;;;6226055;27;20131;-40
2022/08/10 11:59:55;;;;;;;0.52;0.40;;;25.80;45.60;;;;;;6246730;27;20078;-40
2022/08/10 12:01:31;;;;;;;1.30;0.60;;;25.80;45.20;;;;;;6230106;27;32698;-42
2022/08/10 12:04:34;;;;;;;0.98;0.40;;;25.70;44.80;;;;;;6210042;27;20042;-41
2022/08/10 12:07:41;;;;;;;0.43;0.30;;;25.80;44.50;;;;;;6244663;27;21779;-43
2022/08/10 12:11:04;;;;;;;0.40;0.30;;;25.90;44.00;;;;;;6213534;27;20039;-41
2022/08/10 12:14:11;;;;;;;1.00;0.35;;;25.90;43.90;;;;;;6212623;27;20079;-40
2022/08/10 12:17:28;;;;;;;1.77;0.40;;;25.90;43.60;;;;;;6230253;27;20154;-39
2022/08/10 12:20:34;;;;;;;0.22;0.22;;;25.80;43.30;;;;;;6249895;27;20039;-42
2022/08/10 12:23:44;;;;;;;0.40;0.40;;;25.80;43.00;;;;;;6214231;27;20053;-42
2022/08/10 12:26:53;;;;;;;0.70;0.50;;;25.90;42.80;;;;;;6241815;27;21105;-39
2022/08/10 12:30:00;;;;;;;0.63;0.50;;;25.90;42.70;;;;;;6265458;27;20093;-39
2022/08/10 12:33:08;;;;;;;0.38;0.30;;;25.80;42.40;;;;;;6231478;27;20170;-43
2022/08/10 12:36:18;;;;;;;1.50;0.38;;;25.90;43.00;;;;;;6232808;27;20744;-39
2022/08/10 12:39:27;;;;;;;0.55;0.40;;;25.80;42.10;;;;;;6233985;27;20046;-39
2022/08/10 12:42:36;;;;;;;0.52;0.30;;;25.90;42.00;;;;;;6232345;27;20565;-37
2022/08/10 12:45:55;;;;;;;0.60;0.47;;;25.90;41.90;;;;;;6202693;27;20124;-40
2022/08/10 12:49:06;;;;;;;0.85;0.30;;;25.90;41.70;;;;;;6212688;27;20154;-42
2022/08/10 12:52:16;;;;;;;0.40;0.30;;;25.90;41.60;;;;;;6223268;27;20132;-39
2022/08/10 12:55:19;;;;;;;0.47;0.40;;;26.00;41.60;;;;;;6233321;27;20042;-38
2022/08/10 12:58:23;;;;;;;0.40;0.40;;;25.90;41.40;;;;;;6256965;27;20161;-41
2022/08/10 13:01:51;;;;;;;0.40;0.32;;;26.10;41.80;;;;;;6220763;27;23573;-38
2022/08/10 13:05:12;;;;;;;0.40;0.40;;;25.90;41.20;;;;;;6220643;27;20042;-37
2022/08/10 13:11:31;;;;;;;2.45;0.40;;;25.90;41.00;;;;;;6248025;27;20047;-38
2022/08/10 13:14:57;;;;;;;0.60;0.40;;;26.20;41.20;;;;;;6217692;27;20043;-42
2022/08/10 13:18:02;;;;;;;1.08;0.50;;;26.10;41.00;;;;;;6251006;27;20255;-38
2022/08/10 13:21:08;;;;;;;0.40;0.40;;;26.00;40.90;;;;;;6208748;27;28751;-38
2022/08/10 13:24:28;;;;;;;0.45;0.32;;;26.00;40.80;;;;;;6246642;27;20071;-43
2022/08/10 13:27:36;;;;;;;0.40;0.30;;;26.00;40.80;;;;;;6227408;27;20045;-38
2022/08/10 13:31:02;;;;;;;0.50;0.40;;;26.00;40.40;;;;;;6235936;27;20039;-40
2022/08/10 13:34:07;;;;;;;0.20;0.20;;;26.10;40.40;;;;;;6247416;27;36690;-39
2022/08/10 13:37:31;;;;;;;0.40;0.40;;;26.10;40.10;;;;;;6240013;27;20112;-39
2022/08/10 13:40:33;;;;;;;1.10;0.40;;;26.10;39.90;;;;;;6255787;27;20046;-40
2022/08/10 13:43:37;;;;;;;0.43;0.40;;;26.10;39.80;;;;;;6255367;27;21934;-40
2022/08/10 13:46:41;;;;;;;1.50;0.40;;;26.10;39.70;;;;;;6250218;27;20054;-44
2022/08/10 13:49:46;;;;;;;0.77;0.68;;;26.00;39.30;;;;;;6231877;27;21174;-44
2022/08/10 13:52:51;;;;;;;0.60;0.50;;;26.10;39.20;;;;;;6243157;27;20055;-42
2022/08/10 13:55:55;;;;;;;0.70;0.30;;;26.10;39.00;;;;;;6243795;27;20034;-41
2022/08/10 13:59:00;;;;;;;0.50;0.40;;;26.10;38.90;;;;;;6250075;27;20181;-42
2022/08/10 14:02:03;;;;;;;1.23;0.45;;;26.10;38.70;;;;;;6253482;27;20152;-41
2022/08/10 14:05:07;;;;;;;1.20;0.50;;;26.20;38.60;;;;;;6196555;27;20150;-42
2022/08/10 14:08:12;;;;;;;0.73;0.40;;;26.10;38.40;;;;;;6244047;27;20038;-47
2022/08/10 14:11:18;;;;;;;1.83;0.60;;;26.10;38.30;;;;;;6246181;27;20066;-40
2022/08/10 14:14:21;;;;;;;0.50;0.50;;;26.10;38.20;;;;;;6248209;27;20310;-41
2022/08/10 14:17:25;;;;;;;0.40;0.35;;;26.10;38.20;;;;;;6250427;27;21799;-40
2022/08/10 14:20:28;;;;;;;0.40;0.40;;;26.10;38.00;;;;;;6259157;27;20046;-41
2022/08/10 14:23:31;;;;;;;0.70;0.50;;;26.10;38.00;;;;;;6225190;27;20158;-42
2022/08/10 14:26:33;;;;;;;0.40;0.30;;;26.10;37.80;;;;;;6257837;27;20236;-44
2022/08/10 14:29:41;;;;;;;0.30;0.30;;;26.20;37.90;;;;;;6243794;27;20056;-44
2022/08/10 14:32:46;;;;;;;0.65;0.40;;;26.20;37.70;;;;;;6244050;27;20034;-49
2022/08/10 14:35:50;;;;;;;0.45;0.45;;;26.20;37.70;;;;;;6256230;27;20058;-43
2022/08/10 14:39:20;;;;;;;1.95;0.40;;;26.20;37.70;;;;;;6233853;27;20043;-43
2022/08/10 14:42:28;;;;;;;0.40;0.40;;;26.20;37.70;;;;;;6236610;27;20120;-44
2022/08/10 14:45:33;;;;;;;0.90;0.30;;;26.20;37.70;;;;;;6220333;27;20043;-44
2022/08/10 14:48:40;;;;;;;0.28;0.22;;;26.10;37.50;;;;;;6226518;27;20158;-42
2022/08/10 14:51:45;;;;;;;0.38;0.35;;;26.10;37.40;;;;;;6263593;27;20038;-45
2022/08/10 14:54:53;;;;;;;0.50;0.30;;;26.20;37.40;;;;;;6233712;27;33241;-44
2022/08/10 14:57:55;;;;;;;0.50;0.35;;;26.20;37.40;;;;;;6248688;27;20047;-48
2022/08/10 15:01:19;;;;;;;0.30;0.30;;;26.20;37.60;;;;;;6223965;27;20401;-41
2022/08/10 15:04:23;;;;;;;0.47;0.40;;;26.20;37.40;;;;;;6251965;27;20039;-42
2022/08/10 15:07:28;;;;;;;0.60;0.40;;;26.20;37.30;;;;;;6262976;27;20177;-42
2022/08/10 15:10:30;;;;;;;0.55;0.32;;;26.20;37.40;;;;;;6229136;27;20047;-42
2022/08/10 15:13:33;;;;;;;0.47;0.40;;;26.30;37.50;;;;;;6249500;27;20990;-43
2022/08/10 15:16:37;;;;;;;0.47;0.45;;;26.20;37.40;;;;;;6276644;27;20050;-44
2022/08/10 15:19:45;;;;;;;0.35;0.35;;;26.20;37.30;;;;;;6274275;27;20138;-44
2022/08/10 15:23:09;;;;;;;0.30;0.30;;;26.30;37.40;;;;;;6286381;27;20139;-41
2022/08/10 15:26:33;;;;;;;0.30;0.30;;;26.20;37.40;;;;;;6258830;27;20046;-41
2022/08/10 15:29:36;;;;;;;0.35;0.35;;;26.30;37.40;;;;;;6273662;27;20100;-42
2022/08/10 15:39:41;;;;;;;0.40;0.32;;;26.30;37.40;;;;;;6282922;27;20050;-42
2022/08/10 15:43:20;;;;;;;0.90;0.40;;;26.30;37.40;;;;;;6242192;27;20985;-42
2022/08/10 15:46:33;;;;;;;1.13;0.30;;;26.20;37.20;;;;;;6271601;27;20042;-42
2022/08/10 15:49:43;;;;;;;0.82;0.40;;;26.30;37.10;;;;;;6261262;27;20061;-45
2022/08/10 15:52:54;;;;;;;0.30;0.30;;;26.40;37.10;;;;;;6258811;27;20053;-43
2022/08/10 15:56:11;;;;;;;0.32;0.32;;;26.30;37.00;;;;;;6274856;27;20111;-43
2022/08/10 15:59:22;;;;;;;0.32;0.30;;;26.20;36.70;;;;;;6266571;27;21117;-46
2022/08/10 16:02:27;;;;;;;0.40;0.30;;;26.30;36.70;;;;;;6281328;27;20173;-41
2022/08/10 16:05:34;;;;;;;0.40;0.40;;;26.40;37.30;;;;;;6273247;27;20049;-43
2022/08/10 16:09:03;;;;;;;0.30;0.30;;;26.30;36.50;;;;;;6248461;27;20382;-43
2022/08/10 16:12:31;;;;;;;0.30;0.30;;;26.40;36.30;;;;;;6258596;27;20103;-42
2022/08/10 16:15:35;;;;;;;0.40;0.30;;;26.40;36.30;;;;;;6289157;27;20228;-43
2022/08/10 16:18:41;;;;;;;0.60;0.40;;;26.30;36.10;;;;;;6279889;27;20035;-43
2022/08/10 16:21:43;;;;;;;0.40;0.40;;;26.30;36.00;;;;;;6267869;27;20152;-40
2022/08/10 16:24:48;;;;;;;0.50;0.40;;;26.40;36.00;;;;;;6292457;27;20039;-42
2022/08/10 16:27:56;;;;;;;0.50;0.50;;;26.40;36.00;;;;;;6260503;27;20440;-43
2022/08/10 16:31:00;;;;;;;0.43;0.40;;;26.40;35.90;;;;;;6274972;27;20525;-43
2022/08/10 16:34:12;;;;;;;0.40;0.30;;;26.40;35.80;;;;;;6280414;27;20607;-43
2022/08/10 16:37:16;;;;;;;0.57;0.40;;;26.50;35.70;;;;;;6263396;27;20382;-41
2022/08/10 16:40:19;;;;;;;0.50;0.40;;;26.50;35.70;;;;;;6266236;27;20451;-40
2022/08/10 16:43:23;;;;;;;0.47;0.40;;;26.50;35.60;;;;;;6286183;27;20067;-43